5 day graph

You are here

Error message

  • Notice: Trying to access array offset on value of type int in DrupalRequestSanitizer::stripDangerousValues() (line 102 of /home/twolittl/public_html/cms/includes/request-sanitizer.inc).
  • Notice: Trying to access array offset on value of type int in DrupalRequestSanitizer::stripDangerousValues() (line 102 of /home/twolittl/public_html/cms/includes/request-sanitizer.inc).
  • Notice: Trying to access array offset on value of type int in DrupalRequestSanitizer::stripDangerousValues() (line 102 of /home/twolittl/public_html/cms/includes/request-sanitizer.inc).
  • Notice: Trying to access array offset on value of type int in DrupalRequestSanitizer::stripDangerousValues() (line 102 of /home/twolittl/public_html/cms/includes/request-sanitizer.inc).
  • Notice: Trying to access array offset on value of type int in DrupalRequestSanitizer::stripDangerousValues() (line 102 of /home/twolittl/public_html/cms/includes/request-sanitizer.inc).
  • Notice: Trying to access array offset on value of type int in DrupalRequestSanitizer::stripDangerousValues() (line 102 of /home/twolittl/public_html/cms/includes/request-sanitizer.inc).
  • Notice: Trying to access array offset on value of type int in DrupalRequestSanitizer::stripDangerousValues() (line 102 of /home/twolittl/public_html/cms/includes/request-sanitizer.inc).
  • Notice: Trying to access array offset on value of type int in DrupalRequestSanitizer::stripDangerousValues() (line 102 of /home/twolittl/public_html/cms/includes/request-sanitizer.inc).
  • Deprecated function: Function get_magic_quotes_gpc() is deprecated in phpMyEdit->get_cgi_var() (line 1773 of /home/twolittl/public_html/phpMyEdit.class.php).
  • Deprecated function: implode(): Passing glue string after array is deprecated. Swap the parameters in drupal_get_feeds() (line 394 of /home/twolittl/public_html/cms/includes/common.inc).

Hive Data

Page: 1 of 16645  Records: 998690

Row Date Time Hive Temp Hive Humidity Outside Temp Outside Humidity Bottom Board Temp Outside Wall Temp Electronics Temp Light Levels inHG Fan Heat Cover Notes
Clear Sorted By: inHG ascending, Outside Wall Temp descending, Electronics Temp ascending, Row descending
View 752789 Dec 21 2015 1:31:44pm 47.66 56 37.76 93 37.85 39.2 51.8 4 28.38 0 0 0 NA
View 752788 Dec 21 2015 1:30:44pm 47.66 56 37.76 93 37.85 39.2 51.8 4 28.38 0 0 0 NA
View 752787 Dec 21 2015 1:29:44pm 47.66 56 37.76 93 37.85 39.2 51.8 4 28.38 0 0 0 NA
View 752784 Dec 21 2015 1:26:43pm 47.66 56 37.76 93 37.85 39.2 51.8 4 28.38 0 0 0 NA
View 752783 Dec 21 2015 1:25:43pm 47.66 56 37.76 93 37.85 39.2 51.8 5 28.38 0 0 0 NA
View 752782 Dec 21 2015 1:24:43pm 47.66 56 37.76 93 37.85 39.2 51.8 5 28.38 0 0 0 NA
View 752781 Dec 21 2015 1:23:43pm 47.66 56 37.58 93 37.85 39.2 51.8 6 28.38 0 0 0 NA
View 752780 Dec 21 2015 1:22:43pm 47.66 56 37.58 92 37.85 39.2 51.8 5 28.38 0 0 0 NA
View 752779 Dec 21 2015 1:21:42pm 47.66 56 37.58 92 37.85 39.2 51.8 4 28.38 0 0 0 NA
View 752777 Dec 21 2015 1:19:42pm 47.66 56 37.58 93 37.85 39.2 51.8 6 28.38 0 0 0 NA
View 752778 Dec 21 2015 1:20:42pm 47.66 56 37.58 92 37.85 38.75 51.8 5 28.38 0 0 0 NA
View 752776 Dec 21 2015 1:18:42pm 47.66 56 37.58 93 37.85 38.75 51.8 6 28.38 0 0 0 NA
View 752775 Dec 21 2015 1:17:41pm 47.66 56 37.58 93 37.85 38.75 51.8 7 28.38 0 0 0 NA
View 752774 Dec 21 2015 1:16:41pm 47.66 56 37.58 93 37.85 38.75 51.8 6 28.38 0 0 0 NA
View 752773 Dec 21 2015 1:15:41pm 47.66 56 37.58 93 37.85 38.75 51.8 7 28.38 0 0 0 NA
View 752772 Dec 21 2015 1:14:41pm 47.66 56 37.4 92 37.85 38.75 51.8 7 28.38 0 0 0 NA
View 752771 Dec 21 2015 1:13:41pm 47.66 56 37.58 92 37.85 38.75 51.8 6 28.38 0 0 0 NA
View 752769 Dec 21 2015 1:11:40pm 47.66 56 37.58 92 37.85 38.75 51.8 6 28.38 0 0 0 NA
View 752766 Dec 21 2015 1:08:40pm 47.48 56 37.58 92 37.85 38.75 51.8 6 28.38 0 0 0 NA
View 752747 Dec 21 2015 12:49:36pm 47.66 56 37.58 92 37.85 39.2 50 3 28.39 0 0 0 NA
View 752746 Dec 21 2015 12:48:36pm 47.66 56 37.58 91 37.85 39.2 50 4 28.39 0 0 0 NA
View 752745 Dec 21 2015 12:47:35pm 47.66 56 37.58 91 37.85 39.2 50 4 28.39 0 0 0 NA
View 752744 Dec 21 2015 12:46:35pm 47.66 57 37.58 91 37.85 39.2 50 4 28.39 0 0 0 NA
View 752743 Dec 21 2015 12:45:35pm 47.66 57 37.58 90 37.85 39.2 50 4 28.39 0 0 0 NA
View 752796 Dec 21 2015 1:38:46pm 47.66 56 37.76 92 37.85 39.2 51.8 5 28.39 0 0 0 NA
View 752795 Dec 21 2015 1:37:46pm 47.66 56 37.58 92 37.85 39.2 51.8 4 28.39 0 0 0 NA
View 752794 Dec 21 2015 1:36:45pm 47.66 56 37.76 92 37.85 39.2 51.8 3 28.39 0 0 0 NA
View 752793 Dec 21 2015 1:35:45pm 47.66 56 37.76 92 37.85 39.2 51.8 5 28.39 0 0 0 NA
View 752792 Dec 21 2015 1:34:45pm 47.66 56 37.76 92 37.85 39.2 51.8 5 28.39 0 0 0 NA
View 752791 Dec 21 2015 1:33:45pm 47.66 56 37.76 93 37.85 39.2 51.8 4 28.39 0 0 0 NA
View 752790 Dec 21 2015 1:32:44pm 47.66 56 37.76 94 37.85 39.2 51.8 5 28.39 0 0 0 NA
View 752786 Dec 21 2015 1:28:44pm 47.66 56 37.76 93 37.85 39.2 51.8 5 28.39 0 0 0 NA
View 752785 Dec 21 2015 1:27:44pm 47.66 56 37.76 93 37.85 39.2 51.8 5 28.39 0 0 0 NA
View 752755 Dec 21 2015 12:57:38pm 47.66 56 37.58 92 37.85 39.2 51.8 5 28.39 0 0 0 NA
View 752754 Dec 21 2015 12:56:37pm 47.66 56 37.58 92 37.85 39.2 51.8 5 28.39 0 0 0 NA
View 752749 Dec 21 2015 12:51:36pm 47.66 56 37.58 92 37.85 39.2 51.8 3 28.39 0 0 0 NA
View 752748 Dec 21 2015 12:50:36pm 47.66 56 37.58 92 37.85 39.2 51.8 2 28.39 0 0 0 NA
View 752741 Dec 21 2015 12:43:34pm 47.66 57 37.58 91 37.85 39.2 51.8 4 28.39 0 0 0 NA
View 752740 Dec 21 2015 12:42:35pm 47.48 56 37.58 91 37.85 39.2 51.8 4 28.39 0 0 0 NA
View 752739 Dec 21 2015 12:41:34pm 47.66 57 37.58 91 37.85 39.2 51.8 4 28.39 0 0 0 NA
View 752736 Dec 21 2015 12:38:34pm 47.48 56 37.58 91 37.85 39.2 51.8 4 28.39 0 0 0 NA
View 752735 Dec 21 2015 12:37:33pm 47.66 56 37.58 91 37.85 39.2 51.8 4 28.39 0 0 0 NA
View 752734 Dec 21 2015 12:36:33pm 47.48 56 37.58 91 37.85 39.2 51.8 4 28.39 0 0 0 NA
View 752732 Dec 21 2015 12:34:33pm 47.66 56 37.76 91 37.85 39.2 51.8 3 28.39 0 0 0 NA
View 752731 Dec 21 2015 12:33:32pm 47.66 57 37.76 91 37.85 39.2 51.8 3 28.39 0 0 0 NA
View 752730 Dec 21 2015 12:32:32pm 47.66 57 37.76 91 37.85 39.2 51.8 4 28.39 0 0 0 NA
View 752729 Dec 21 2015 12:31:32pm 47.66 56 37.76 90 37.85 39.2 51.8 4 28.39 0 0 0 NA
View 752728 Dec 21 2015 12:30:32pm 47.66 56 37.76 91 37.85 39.2 51.8 4 28.39 0 0 0 NA
View 752727 Dec 21 2015 12:29:32pm 47.66 56 37.76 91 37.85 39.2 51.8 5 28.39 0 0 0 NA
View 752726 Dec 21 2015 12:28:32pm 47.66 56 37.76 91 37.85 39.2 51.8 5 28.39 0 0 0 NA
View 752725 Dec 21 2015 12:27:32pm 47.66 57 37.76 90 37.85 39.2 51.8 5 28.39 0 0 0 NA
View 752724 Dec 21 2015 12:26:31pm 47.66 57 37.76 90 37.85 39.2 51.8 5 28.39 0 0 0 NA
View 752717 Dec 21 2015 12:19:30pm 47.48 56 37.76 91 37.85 39.2 51.8 5 28.39 0 0 0 NA
View 752709 Dec 21 2015 12:11:28pm 47.48 57 37.76 90 37.85 39.2 51.8 6 28.39 0 0 0 NA
View 752707 Dec 21 2015 12:09:28pm 47.66 57 37.76 90 38.3 39.2 51.8 6 28.39 0 0 0 NA
View 752742 Dec 21 2015 12:44:35pm 47.66 57 37.58 90 37.85 38.75 50 4 28.39 0 0 0 NA
View 752805 Dec 21 2015 1:47:47pm 47.48 56 37.4 92 37.85 38.75 51.8 4 28.39 0 0 0 NA
View 752804 Dec 21 2015 1:46:47pm 47.66 56 37.4 92 37.85 38.75 51.8 4 28.39 0 0 0 NA
View 752803 Dec 21 2015 1:45:47pm 47.66 56 37.4 92 37.85 38.75 51.8 5 28.39 0 0 0 NA
View 752800 Dec 21 2015 1:42:46pm 47.66 56 37.58 91 37.85 38.75 51.8 4 28.39 0 0 0 NA